sensor_id;sensor_type;location;lat;lon;timestamp;temperature;humidity
51839;DHT22;37886;53.174;6.368;2023-12-07T00:00:50;2.40;99.90
51839;DHT22;37886;53.174;6.368;2023-12-07T00:03:16;2.30;99.90
51839;DHT22;37886;53.174;6.368;2023-12-07T00:05:41;2.30;99.90
51839;DHT22;37886;53.174;6.368;2023-12-07T00:08:10;2.30;99.90
51839;DHT22;37886;53.174;6.368;2023-12-07T00:10:36;2.40;99.90
51839;DHT22;37886;53.174;6.368;2023-12-07T00:13:02;2.30;99.90
51839;DHT22;37886;53.174;6.368;2023-12-07T00:15:28;2.30;99.90
51839;DHT22;37886;53.174;6.368;2023-12-07T00:17:54;2.30;99.90
51839;DHT22;37886;53.174;6.368;2023-12-07T00:20:19;2.30;99.90
51839;DHT22;37886;53.174;6.368;2023-12-07T00:22:45;2.30;99.90
51839;DHT22;37886;53.174;6.368;2023-12-07T00:25:11;2.30;99.90
51839;DHT22;37886;53.174;6.368;2023-12-07T00:27:37;2.30;99.90
51839;DHT22;37886;53.174;6.368;2023-12-07T00:30:02;2.30;99.90
51839;DHT22;37886;53.174;6.368;2023-12-07T00:32:29;2.30;99.90
51839;DHT22;37886;53.174;6.368;2023-12-07T00:34:55;2.30;99.90
51839;DHT22;37886;53.174;6.368;2023-12-07T00:37:20;2.30;99.90
51839;DHT22;37886;53.174;6.368;2023-12-07T00:39:46;2.30;99.90
51839;DHT22;37886;53.174;6.368;2023-12-07T00:42:12;2.30;99.90
51839;DHT22;37886;53.174;6.368;2023-12-07T00:44:41;2.20;99.90
51839;DHT22;37886;53.174;6.368;2023-12-07T00:47:07;2.30;99.90
51839;DHT22;37886;53.174;6.368;2023-12-07T00:49:33;2.20;99.90
51839;DHT22;37886;53.174;6.368;2023-12-07T00:51:59;2.20;99.90
51839;DHT22;37886;53.174;6.368;2023-12-07T00:54:24;2.20;99.90
51839;DHT22;37886;53.174;6.368;2023-12-07T00:56:50;2.20;99.90
51839;DHT22;37886;53.174;6.368;2023-12-07T00:59:16;2.20;99.90
51839;DHT22;37886;53.174;6.368;2023-12-07T01:01:42;2.20;99.90
51839;DHT22;37886;53.174;6.368;2023-12-07T01:04:07;2.20;99.90
51839;DHT22;37886;53.174;6.368;2023-12-07T01:06:33;2.20;99.90
51839;DHT22;37886;53.174;6.368;2023-12-07T01:08:59;2.20;99.90
51839;DHT22;37886;53.174;6.368;2023-12-07T01:11:25;2.20;99.90
51839;DHT22;37886;53.174;6.368;2023-12-07T01:13:50;2.20;99.90
51839;DHT22;37886;53.174;6.368;2023-12-07T01:16:16;2.20;99.90
51839;DHT22;37886;53.174;6.368;2023-12-07T01:18:42;2.20;99.90
51839;DHT22;37886;53.174;6.368;2023-12-07T01:21:07;2.20;99.90
51839;DHT22;37886;53.174;6.368;2023-12-07T01:23:33;2.10;99.90
51839;DHT22;37886;53.174;6.368;2023-12-07T01:25:58;2.10;99.90
51839;DHT22;37886;53.174;6.368;2023-12-07T01:28:27;2.10;99.90
51839;DHT22;37886;53.174;6.368;2023-12-07T01:30:53;2.10;99.90
51839;DHT22;37886;53.174;6.368;2023-12-07T01:33:19;2.10;99.90
51839;DHT22;37886;53.174;6.368;2023-12-07T01:35:44;2.10;99.90
51839;DHT22;37886;53.174;6.368;2023-12-07T01:38:10;2.10;99.90
51839;DHT22;37886;53.174;6.368;2023-12-07T01:40:36;2.10;99.90
51839;DHT22;37886;53.174;6.368;2023-12-07T01:43:01;2.10;99.90
51839;DHT22;37886;53.174;6.368;2023-12-07T01:45:27;2.10;99.90
51839;DHT22;37886;53.174;6.368;2023-12-07T01:47:54;2.10;99.90
51839;DHT22;37886;53.174;6.368;2023-12-07T01:50:22;2.10;99.90
51839;DHT22;37886;53.174;6.368;2023-12-07T01:52:54;2.10;99.90
51839;DHT22;37886;53.174;6.368;2023-12-07T01:55:20;2.10;99.90
51839;DHT22;37886;53.174;6.368;2023-12-07T01:57:47;2.10;99.90
51839;DHT22;37886;53.174;6.368;2023-12-07T02:00:15;2.10;99.90
51839;DHT22;37886;53.174;6.368;2023-12-07T02:02:42;2.10;99.90
51839;DHT22;37886;53.174;6.368;2023-12-07T02:05:09;2.10;99.90
51839;DHT22;37886;53.174;6.368;2023-12-07T02:07:34;2.10;99.90
51839;DHT22;37886;53.174;6.368;2023-12-07T02:10:00;2.10;99.90
51839;DHT22;37886;53.174;6.368;2023-12-07T02:12:26;2.10;99.90
51839;DHT22;37886;53.174;6.368;2023-12-07T02:14:55;2.10;99.90
51839;DHT22;37886;53.174;6.368;2023-12-07T02:17:33;2.10;99.90
51839;DHT22;37886;53.174;6.368;2023-12-07T02:22:49;2.00;99.90
51839;DHT22;37886;53.174;6.368;2023-12-07T02:25:19;2.00;99.90
51839;DHT22;37886;53.174;6.368;2023-12-07T02:27:47;2.00;99.90
51839;DHT22;37886;53.174;6.368;2023-12-07T02:30:13;1.90;99.90
51839;DHT22;37886;53.174;6.368;2023-12-07T02:32:40;1.90;99.90
51839;DHT22;37886;53.174;6.368;2023-12-07T02:35:08;1.90;99.90
51839;DHT22;37886;53.174;6.368;2023-12-07T02:38:01;1.90;99.90
51839;DHT22;37886;53.174;6.368;2023-12-07T02:40:28;1.90;99.90
51839;DHT22;37886;53.174;6.368;2023-12-07T02:42:54;1.90;99.90
51839;DHT22;37886;53.174;6.368;2023-12-07T02:45:21;1.90;99.90
51839;DHT22;37886;53.174;6.368;2023-12-07T02:47:47;1.90;99.90
51839;DHT22;37886;53.174;6.368;2023-12-07T02:50:13;1.90;99.90
51839;DHT22;37886;53.174;6.368;2023-12-07T02:52:39;1.90;99.90
51839;DHT22;37886;53.174;6.368;2023-12-07T02:55:05;2.00;99.90
51839;DHT22;37886;53.174;6.368;2023-12-07T02:57:31;1.90;99.90
51839;DHT22;37886;53.174;6.368;2023-12-07T03:00:01;2.00;99.90
51839;DHT22;37886;53.174;6.368;2023-12-07T03:02:33;2.00;99.90
51839;DHT22;37886;53.174;6.368;2023-12-07T03:04:59;2.00;99.90
51839;DHT22;37886;53.174;6.368;2023-12-07T03:07:24;2.00;99.90
51839;DHT22;37886;53.174;6.368;2023-12-07T03:09:50;2.00;99.90
51839;DHT22;37886;53.174;6.368;2023-12-07T03:12:16;2.10;99.90
51839;DHT22;37886;53.174;6.368;2023-12-07T03:14:41;2.00;99.90
51839;DHT22;37886;53.174;6.368;2023-12-07T03:17:07;2.00;99.90
51839;DHT22;37886;53.174;6.368;2023-12-07T03:19:32;2.00;99.90
51839;DHT22;37886;53.174;6.368;2023-12-07T03:21:58;2.00;99.90
51839;DHT22;37886;53.174;6.368;2023-12-07T03:24:24;2.00;99.90
51839;DHT22;37886;53.174;6.368;2023-12-07T03:26:50;1.90;99.90
51839;DHT22;37886;53.174;6.368;2023-12-07T03:29:15;1.80;99.90
51839;DHT22;37886;53.174;6.368;2023-12-07T03:31:41;1.80;99.90
51839;DHT22;37886;53.174;6.368;2023-12-07T03:34:06;1.60;99.90
51839;DHT22;37886;53.174;6.368;2023-12-07T03:36:32;1.50;99.90
51839;DHT22;37886;53.174;6.368;2023-12-07T03:38:58;1.40;99.90
51839;DHT22;37886;53.174;6.368;2023-12-07T03:41:23;1.20;99.90
51839;DHT22;37886;53.174;6.368;2023-12-07T03:43:49;1.30;99.90
51839;DHT22;37886;53.174;6.368;2023-12-07T03:46:15;1.20;99.90
51839;DHT22;37886;53.174;6.368;2023-12-07T03:48:40;1.10;99.90
51839;DHT22;37886;53.174;6.368;2023-12-07T03:51:06;1.10;99.90
51839;DHT22;37886;53.174;6.368;2023-12-07T03:53:32;1.10;99.90
51839;DHT22;37886;53.174;6.368;2023-12-07T03:55:57;0.90;99.90
51839;DHT22;37886;53.174;6.368;2023-12-07T03:58:23;0.90;99.90
51839;DHT22;37886;53.174;6.368;2023-12-07T04:00:49;0.80;99.90
51839;DHT22;37886;53.174;6.368;2023-12-07T04:03:14;0.70;99.90
51839;DHT22;37886;53.174;6.368;2023-12-07T04:05:40;0.70;99.90
51839;DHT22;37886;53.174;6.368;2023-12-07T04:08:06;0.60;99.90
51839;DHT22;37886;53.174;6.368;2023-12-07T04:10:31;0.60;99.90
51839;DHT22;37886;53.174;6.368;2023-12-07T04:12:57;0.50;99.90
51839;DHT22;37886;53.174;6.368;2023-12-07T04:15:23;0.40;99.90
51839;DHT22;37886;53.174;6.368;2023-12-07T04:17:49;0.50;99.90
51839;DHT22;37886;53.174;6.368;2023-12-07T04:20:15;0.50;99.90
51839;DHT22;37886;53.174;6.368;2023-12-07T04:22:41;0.60;99.90
51839;DHT22;37886;53.174;6.368;2023-12-07T04:25:07;0.60;99.90
51839;DHT22;37886;53.174;6.368;2023-12-07T04:27:33;0.70;99.90
51839;DHT22;37886;53.174;6.368;2023-12-07T04:29:59;0.70;99.90
51839;DHT22;37886;53.174;6.368;2023-12-07T04:32:25;0.70;99.90
51839;DHT22;37886;53.174;6.368;2023-12-07T04:34:51;0.70;99.90
51839;DHT22;37886;53.174;6.368;2023-12-07T04:37:17;0.80;99.90
51839;DHT22;37886;53.174;6.368;2023-12-07T04:39:43;0.80;99.90
51839;DHT22;37886;53.174;6.368;2023-12-07T04:42:09;0.80;99.90
51839;DHT22;37886;53.174;6.368;2023-12-07T04:44:34;0.80;99.90
51839;DHT22;37886;53.174;6.368;2023-12-07T04:47:00;0.80;99.90
51839;DHT22;37886;53.174;6.368;2023-12-07T04:49:26;0.90;99.90
51839;DHT22;37886;53.174;6.368;2023-12-07T04:51:52;0.90;99.90
51839;DHT22;37886;53.174;6.368;2023-12-07T04:54:18;0.90;99.90
51839;DHT22;37886;53.174;6.368;2023-12-07T04:56:45;0.90;99.90
51839;DHT22;37886;53.174;6.368;2023-12-07T04:59:10;0.90;99.90
51839;DHT22;37886;53.174;6.368;2023-12-07T05:01:36;0.90;99.90
51839;DHT22;37886;53.174;6.368;2023-12-07T05:04:03;0.90;99.90
51839;DHT22;37886;53.174;6.368;2023-12-07T05:06:30;0.90;99.90
51839;DHT22;37886;53.174;6.368;2023-12-07T05:08:56;1.00;99.90
51839;DHT22;37886;53.174;6.368;2023-12-07T05:11:22;0.90;99.90
51839;DHT22;37886;53.174;6.368;2023-12-07T05:13:47;0.90;99.90
51839;DHT22;37886;53.174;6.368;2023-12-07T05:16:14;0.90;99.90
51839;DHT22;37886;53.174;6.368;2023-12-07T05:18:40;0.90;99.90
51839;DHT22;37886;53.174;6.368;2023-12-07T05:21:06;0.90;99.90
51839;DHT22;37886;53.174;6.368;2023-12-07T05:23:32;0.90;99.90
51839;DHT22;37886;53.174;6.368;2023-12-07T05:25:58;1.00;99.90
51839;DHT22;37886;53.174;6.368;2023-12-07T05:28:24;0.90;99.90
51839;DHT22;37886;53.174;6.368;2023-12-07T05:30:51;0.90;99.90
51839;DHT22;37886;53.174;6.368;2023-12-07T05:33:17;0.90;99.90
51839;DHT22;37886;53.174;6.368;2023-12-07T05:35:45;0.90;99.90
51839;DHT22;37886;53.174;6.368;2023-12-07T05:38:10;0.90;99.90
51839;DHT22;37886;53.174;6.368;2023-12-07T05:40:36;0.90;99.90
51839;DHT22;37886;53.174;6.368;2023-12-07T05:43:02;0.90;99.90
51839;DHT22;37886;53.174;6.368;2023-12-07T05:45:27;0.90;99.90
51839;DHT22;37886;53.174;6.368;2023-12-07T05:47:54;0.90;99.90
51839;DHT22;37886;53.174;6.368;2023-12-07T05:50:20;0.90;99.90
51839;DHT22;37886;53.174;6.368;2023-12-07T05:52:46;0.90;99.90
51839;DHT22;37886;53.174;6.368;2023-12-07T05:55:12;0.90;99.90
51839;DHT22;37886;53.174;6.368;2023-12-07T05:57:37;0.90;99.90
51839;DHT22;37886;53.174;6.368;2023-12-07T06:00:04;0.90;99.90
51839;DHT22;37886;53.174;6.368;2023-12-07T06:02:33;1.00;99.90
51839;DHT22;37886;53.174;6.368;2023-12-07T06:04:58;1.00;99.90
51839;DHT22;37886;53.174;6.368;2023-12-07T06:07:24;1.00;99.90
51839;DHT22;37886;53.174;6.368;2023-12-07T06:09:50;1.00;99.90
51839;DHT22;37886;53.174;6.368;2023-12-07T06:12:15;1.00;99.90
51839;DHT22;37886;53.174;6.368;2023-12-07T06:14:41;1.00;99.90
51839;DHT22;37886;53.174;6.368;2023-12-07T06:17:07;1.00;99.90
51839;DHT22;37886;53.174;6.368;2023-12-07T06:19:33;1.00;99.90
51839;DHT22;37886;53.174;6.368;2023-12-07T06:21:59;1.00;99.90
51839;DHT22;37886;53.174;6.368;2023-12-07T06:24:24;1.00;99.90
51839;DHT22;37886;53.174;6.368;2023-12-07T06:26:51;1.10;99.90
51839;DHT22;37886;53.174;6.368;2023-12-07T06:29:17;1.10;99.90
51839;DHT22;37886;53.174;6.368;2023-12-07T06:31:44;1.10;99.90
51839;DHT22;37886;53.174;6.368;2023-12-07T06:34:10;1.10;99.90
51839;DHT22;37886;53.174;6.368;2023-12-07T06:36:36;1.20;99.90
51839;DHT22;37886;53.174;6.368;2023-12-07T06:39:02;1.20;99.90
51839;DHT22;37886;53.174;6.368;2023-12-07T06:41:31;1.10;99.90
51839;DHT22;37886;53.174;6.368;2023-12-07T06:43:56;1.20;99.90
51839;DHT22;37886;53.174;6.368;2023-12-07T06:46:22;1.20;99.90
51839;DHT22;37886;53.174;6.368;2023-12-07T06:48:48;1.20;99.90
51839;DHT22;37886;53.174;6.368;2023-12-07T06:51:13;1.20;99.90
51839;DHT22;37886;53.174;6.368;2023-12-07T06:53:41;1.20;99.90
51839;DHT22;37886;53.174;6.368;2023-12-07T06:56:07;1.20;99.90
51839;DHT22;37886;53.174;6.368;2023-12-07T06:58:33;1.20;99.90
51839;DHT22;37886;53.174;6.368;2023-12-07T07:00:59;1.20;99.90
51839;DHT22;37886;53.174;6.368;2023-12-07T07:03:25;1.20;99.90
51839;DHT22;37886;53.174;6.368;2023-12-07T07:05:51;1.20;99.90
51839;DHT22;37886;53.174;6.368;2023-12-07T07:08:16;1.20;99.90
51839;DHT22;37886;53.174;6.368;2023-12-07T07:10:44;1.20;99.90
51839;DHT22;37886;53.174;6.368;2023-12-07T07:13:10;1.20;99.90
51839;DHT22;37886;53.174;6.368;2023-12-07T07:15:35;1.30;99.90
51839;DHT22;37886;53.174;6.368;2023-12-07T07:18:01;1.20;99.90
51839;DHT22;37886;53.174;6.368;2023-12-07T07:20:27;1.30;99.90
51839;DHT22;37886;53.174;6.368;2023-12-07T07:22:53;1.30;99.90
51839;DHT22;37886;53.174;6.368;2023-12-07T07:25:18;1.30;99.90
51839;DHT22;37886;53.174;6.368;2023-12-07T07:27:48;1.30;99.90
51839;DHT22;37886;53.174;6.368;2023-12-07T07:30:14;1.30;99.90
51839;DHT22;37886;53.174;6.368;2023-12-07T07:32:40;1.30;99.90
51839;DHT22;37886;53.174;6.368;2023-12-07T07:35:06;1.30;99.90
51839;DHT22;37886;53.174;6.368;2023-12-07T07:37:32;1.30;99.90
51839;DHT22;37886;53.174;6.368;2023-12-07T07:39:58;1.30;99.90
51839;DHT22;37886;53.174;6.368;2023-12-07T07:42:25;1.30;99.90
51839;DHT22;37886;53.174;6.368;2023-12-07T07:44:51;1.30;99.90
51839;DHT22;37886;53.174;6.368;2023-12-07T07:47:16;1.40;99.90
51839;DHT22;37886;53.174;6.368;2023-12-07T07:49:42;1.30;99.90
51839;DHT22;37886;53.174;6.368;2023-12-07T07:52:08;1.30;99.90
51839;DHT22;37886;53.174;6.368;2023-12-07T07:54:33;1.40;99.90
51839;DHT22;37886;53.174;6.368;2023-12-07T07:56:59;1.30;99.90
51839;DHT22;37886;53.174;6.368;2023-12-07T07:59:25;1.30;99.90
51839;DHT22;37886;53.174;6.368;2023-12-07T08:01:51;1.40;99.90
51839;DHT22;37886;53.174;6.368;2023-12-07T08:04:16;1.40;99.90
51839;DHT22;37886;53.174;6.368;2023-12-07T08:06:42;1.30;99.90
51839;DHT22;37886;53.174;6.368;2023-12-07T08:09:08;1.40;99.90
51839;DHT22;37886;53.174;6.368;2023-12-07T08:11:35;1.30;99.90
51839;DHT22;37886;53.174;6.368;2023-12-07T08:14:01;1.30;99.90
51839;DHT22;37886;53.174;6.368;2023-12-07T08:16:26;1.30;99.90
51839;DHT22;37886;53.174;6.368;2023-12-07T08:18:53;1.30;99.90
51839;DHT22;37886;53.174;6.368;2023-12-07T08:21:22;1.20;99.90
51839;DHT22;37886;53.174;6.368;2023-12-07T08:23:48;1.10;99.90
51839;DHT22;37886;53.174;6.368;2023-12-07T08:26:14;1.10;99.90
51839;DHT22;37886;53.174;6.368;2023-12-07T08:28:43;1.00;99.90
51839;DHT22;37886;53.174;6.368;2023-12-07T08:31:10;1.00;99.90
51839;DHT22;37886;53.174;6.368;2023-12-07T08:33:36;0.90;99.90
51839;DHT22;37886;53.174;6.368;2023-12-07T08:36:03;0.90;99.90
51839;DHT22;37886;53.174;6.368;2023-12-07T08:38:29;0.90;99.90
51839;DHT22;37886;53.174;6.368;2023-12-07T08:40:55;0.90;99.90
51839;DHT22;37886;53.174;6.368;2023-12-07T08:43:21;0.90;99.90
51839;DHT22;37886;53.174;6.368;2023-12-07T08:45:51;0.80;99.90
51839;DHT22;37886;53.174;6.368;2023-12-07T08:48:19;0.80;99.90
51839;DHT22;37886;53.174;6.368;2023-12-07T08:50:44;0.80;99.90
51839;DHT22;37886;53.174;6.368;2023-12-07T08:53:10;0.80;99.90
51839;DHT22;37886;53.174;6.368;2023-12-07T08:55:36;0.80;99.90
51839;DHT22;37886;53.174;6.368;2023-12-07T08:58:02;0.80;99.90
51839;DHT22;37886;53.174;6.368;2023-12-07T09:00:31;0.80;99.90
51839;DHT22;37886;53.174;6.368;2023-12-07T09:02:57;0.90;99.90
51839;DHT22;37886;53.174;6.368;2023-12-07T09:05:23;0.90;99.90
51839;DHT22;37886;53.174;6.368;2023-12-07T09:07:49;1.00;99.90
51839;DHT22;37886;53.174;6.368;2023-12-07T09:10:14;1.00;99.90
51839;DHT22;37886;53.174;6.368;2023-12-07T09:12:40;1.00;99.90
51839;DHT22;37886;53.174;6.368;2023-12-07T09:15:07;1.00;99.90
51839;DHT22;37886;53.174;6.368;2023-12-07T09:17:33;1.00;99.90
51839;DHT22;37886;53.174;6.368;2023-12-07T09:19:58;1.10;99.90
51839;DHT22;37886;53.174;6.368;2023-12-07T09:22:24;1.10;99.90
51839;DHT22;37886;53.174;6.368;2023-12-07T09:24:50;1.10;99.90
51839;DHT22;37886;53.174;6.368;2023-12-07T09:27:16;1.10;99.90
51839;DHT22;37886;53.174;6.368;2023-12-07T09:29:42;1.10;99.90
51839;DHT22;37886;53.174;6.368;2023-12-07T09:32:07;1.10;99.90
51839;DHT22;37886;53.174;6.368;2023-12-07T09:34:33;1.10;99.90
51839;DHT22;37886;53.174;6.368;2023-12-07T09:37:06;1.10;99.90
51839;DHT22;37886;53.174;6.368;2023-12-07T09:39:32;1.20;99.90
51839;DHT22;37886;53.174;6.368;2023-12-07T09:41:58;1.20;99.90
51839;DHT22;37886;53.174;6.368;2023-12-07T09:44:24;1.20;99.90
51839;DHT22;37886;53.174;6.368;2023-12-07T09:46:50;1.30;99.90
51839;DHT22;37886;53.174;6.368;2023-12-07T09:49:16;1.30;99.90
51839;DHT22;37886;53.174;6.368;2023-12-07T09:51:43;1.30;99.90
51839;DHT22;37886;53.174;6.368;2023-12-07T09:54:09;1.30;99.90
51839;DHT22;37886;53.174;6.368;2023-12-07T09:56:36;1.40;99.90
51839;DHT22;37886;53.174;6.368;2023-12-07T09:59:02;1.40;99.90
51839;DHT22;37886;53.174;6.368;2023-12-07T10:01:31;1.40;99.90
51839;DHT22;37886;53.174;6.368;2023-12-07T10:04:35;1.50;99.90
51839;DHT22;37886;53.174;6.368;2023-12-07T10:07:02;1.50;99.90
51839;DHT22;37886;53.174;6.368;2023-12-07T10:09:28;1.50;99.90
51839;DHT22;37886;53.174;6.368;2023-12-07T10:12:04;1.60;99.90
51839;DHT22;37886;53.174;6.368;2023-12-07T10:14:30;1.60;99.90
51839;DHT22;37886;53.174;6.368;2023-12-07T10:16:56;1.60;99.90
51839;DHT22;37886;53.174;6.368;2023-12-07T10:19:22;1.60;99.90
51839;DHT22;37886;53.174;6.368;2023-12-07T10:21:49;1.70;99.90
51839;DHT22;37886;53.174;6.368;2023-12-07T10:24:18;1.70;99.90
51839;DHT22;37886;53.174;6.368;2023-12-07T10:26:45;1.80;99.90
51839;DHT22;37886;53.174;6.368;2023-12-07T10:29:11;2.00;99.90
51839;DHT22;37886;53.174;6.368;2023-12-07T10:31:38;2.00;99.90
51839;DHT22;37886;53.174;6.368;2023-12-07T10:34:05;2.00;99.90
51839;DHT22;37886;53.174;6.368;2023-12-07T10:36:30;2.00;99.90
51839;DHT22;37886;53.174;6.368;2023-12-07T10:38:56;2.00;99.90
51839;DHT22;37886;53.174;6.368;2023-12-07T10:41:25;2.10;99.90
51839;DHT22;37886;53.174;6.368;2023-12-07T10:43:59;2.20;99.90
51839;DHT22;37886;53.174;6.368;2023-12-07T10:46:25;2.20;99.90
51839;DHT22;37886;53.174;6.368;2023-12-07T10:48:59;2.30;99.90
51839;DHT22;37886;53.174;6.368;2023-12-07T10:51:44;2.30;99.90
51839;DHT22;37886;53.174;6.368;2023-12-07T10:54:14;2.30;99.90
51839;DHT22;37886;53.174;6.368;2023-12-07T10:56:46;2.50;99.90
51839;DHT22;37886;53.174;6.368;2023-12-07T10:59:12;2.50;99.90
51839;DHT22;37886;53.174;6.368;2023-12-07T11:01:42;2.60;99.90
51839;DHT22;37886;53.174;6.368;2023-12-07T11:04:13;2.70;99.90
51839;DHT22;37886;53.174;6.368;2023-12-07T11:06:40;2.80;99.90
51839;DHT22;37886;53.174;6.368;2023-12-07T11:09:13;2.90;99.90
51839;DHT22;37886;53.174;6.368;2023-12-07T11:11:50;2.90;99.90
51839;DHT22;37886;53.174;6.368;2023-12-07T11:14:18;2.90;99.90
51839;DHT22;37886;53.174;6.368;2023-12-07T11:16:46;3.00;99.90
51839;DHT22;37886;53.174;6.368;2023-12-07T11:22:02;3.20;99.90
51839;DHT22;37886;53.174;6.368;2023-12-07T11:24:28;3.10;99.90
51839;DHT22;37886;53.174;6.368;2023-12-07T11:26:57;3.20;99.90
51839;DHT22;37886;53.174;6.368;2023-12-07T11:29:31;3.20;99.90
51839;DHT22;37886;53.174;6.368;2023-12-07T11:32:04;3.20;99.90
51839;DHT22;37886;53.174;6.368;2023-12-07T11:34:35;3.30;99.90
51839;DHT22;37886;53.174;6.368;2023-12-07T11:37:02;3.30;99.90
51839;DHT22;37886;53.174;6.368;2023-12-07T11:39:29;3.30;99.90
51839;DHT22;37886;53.174;6.368;2023-12-07T11:41:55;3.30;99.90
51839;DHT22;37886;53.174;6.368;2023-12-07T11:44:33;3.40;99.90
51839;DHT22;37886;53.174;6.368;2023-12-07T11:46:59;3.40;99.90
51839;DHT22;37886;53.174;6.368;2023-12-07T11:49:26;3.40;99.90
51839;DHT22;37886;53.174;6.368;2023-12-07T11:51:52;3.40;99.90
51839;DHT22;37886;53.174;6.368;2023-12-07T11:54:18;3.30;99.90
51839;DHT22;37886;53.174;6.368;2023-12-07T11:56:43;3.30;99.90
51839;DHT22;37886;53.174;6.368;2023-12-07T11:59:09;3.40;99.90
51839;DHT22;37886;53.174;6.368;2023-12-07T12:01:35;3.20;99.90
51839;DHT22;37886;53.174;6.368;2023-12-07T12:04:00;3.00;99.90
51839;DHT22;37886;53.174;6.368;2023-12-07T12:06:26;2.80;99.90
51839;DHT22;37886;53.174;6.368;2023-12-07T12:08:53;2.80;99.90
51839;DHT22;37886;53.174;6.368;2023-12-07T12:11:18;2.60;99.90
51839;DHT22;37886;53.174;6.368;2023-12-07T12:13:45;2.30;99.90
51839;DHT22;37886;53.174;6.368;2023-12-07T12:16:11;2.20;99.90
51839;DHT22;37886;53.174;6.368;2023-12-07T12:18:38;2.10;99.90
51839;DHT22;37886;53.174;6.368;2023-12-07T12:21:06;2.00;99.90
51839;DHT22;37886;53.174;6.368;2023-12-07T12:23:33;2.20;99.90
51839;DHT22;37886;53.174;6.368;2023-12-07T12:25:59;2.30;99.90
51839;DHT22;37886;53.174;6.368;2023-12-07T12:28:25;2.00;99.90
51839;DHT22;37886;53.174;6.368;2023-12-07T12:30:51;1.70;99.90
51839;DHT22;37886;53.174;6.368;2023-12-07T12:33:17;1.60;99.90
51839;DHT22;37886;53.174;6.368;2023-12-07T12:35:43;1.50;99.90
51839;DHT22;37886;53.174;6.368;2023-12-07T12:38:10;1.60;99.90
51839;DHT22;37886;53.174;6.368;2023-12-07T12:40:37;1.70;99.90
51839;DHT22;37886;53.174;6.368;2023-12-07T12:43:03;1.70;99.90
51839;DHT22;37886;53.174;6.368;2023-12-07T12:45:28;1.40;99.90
51839;DHT22;37886;53.174;6.368;2023-12-07T12:47:54;1.30;99.90
51839;DHT22;37886;53.174;6.368;2023-12-07T12:50:40;1.20;99.90
51839;DHT22;37886;53.174;6.368;2023-12-07T12:53:08;1.20;99.90
51839;DHT22;37886;53.174;6.368;2023-12-07T12:55:36;1.20;99.90
51839;DHT22;37886;53.174;6.368;2023-12-07T12:58:02;1.00;99.90
51839;DHT22;37886;53.174;6.368;2023-12-07T13:00:31;0.90;99.90
51839;DHT22;37886;53.174;6.368;2023-12-07T13:02:59;0.90;99.90
51839;DHT22;37886;53.174;6.368;2023-12-07T13:05:26;0.90;99.90
51839;DHT22;37886;53.174;6.368;2023-12-07T13:07:52;1.10;99.90
51839;DHT22;37886;53.174;6.368;2023-12-07T13:10:17;1.10;99.90
51839;DHT22;37886;53.174;6.368;2023-12-07T13:12:43;1.20;99.90
51839;DHT22;37886;53.174;6.368;2023-12-07T13:15:11;1.30;99.90
51839;DHT22;37886;53.174;6.368;2023-12-07T13:17:38;1.20;99.90
51839;DHT22;37886;53.174;6.368;2023-12-07T13:20:08;1.10;99.90
51839;DHT22;37886;53.174;6.368;2023-12-07T13:22:42;1.20;99.90
51839;DHT22;37886;53.174;6.368;2023-12-07T13:25:11;1.00;99.90
51839;DHT22;37886;53.174;6.368;2023-12-07T13:27:37;1.00;99.90
51839;DHT22;37886;53.174;6.368;2023-12-07T13:30:04;0.80;99.90
51839;DHT22;37886;53.174;6.368;2023-12-07T13:32:36;0.70;99.90
51839;DHT22;37886;53.174;6.368;2023-12-07T13:35:07;0.70;99.90
51839;DHT22;37886;53.174;6.368;2023-12-07T13:37:33;0.70;99.90
51839;DHT22;37886;53.174;6.368;2023-12-07T13:39:59;0.80;99.90
51839;DHT22;37886;53.174;6.368;2023-12-07T13:42:27;0.80;99.90
51839;DHT22;37886;53.174;6.368;2023-12-07T13:44:57;0.80;99.90
51839;DHT22;37886;53.174;6.368;2023-12-07T13:47:27;0.80;99.90
51839;DHT22;37886;53.174;6.368;2023-12-07T13:50:13;0.70;99.90
51839;DHT22;37886;53.174;6.368;2023-12-07T13:52:39;0.60;99.90
51839;DHT22;37886;53.174;6.368;2023-12-07T13:55:04;0.60;99.90
51839;DHT22;37886;53.174;6.368;2023-12-07T13:57:30;0.60;99.90
51839;DHT22;37886;53.174;6.368;2023-12-07T13:59:56;0.70;99.90
51839;DHT22;37886;53.174;6.368;2023-12-07T14:02:22;0.50;99.90
51839;DHT22;37886;53.174;6.368;2023-12-07T14:04:48;0.50;99.90
51839;DHT22;37886;53.174;6.368;2023-12-07T14:07:20;0.60;99.90
51839;DHT22;37886;53.174;6.368;2023-12-07T14:09:51;0.60;99.90
51839;DHT22;37886;53.174;6.368;2023-12-07T14:12:18;0.50;99.90
51839;DHT22;37886;53.174;6.368;2023-12-07T14:14:46;0.60;99.90
51839;DHT22;37886;53.174;6.368;2023-12-07T14:17:16;0.50;99.90
51839;DHT22;37886;53.174;6.368;2023-12-07T14:19:43;0.60;99.90
51839;DHT22;37886;53.174;6.368;2023-12-07T14:22:09;0.70;99.90
51839;DHT22;37886;53.174;6.368;2023-12-07T14:24:35;0.60;99.90
51839;DHT22;37886;53.174;6.368;2023-12-07T14:27:02;0.60;99.90
51839;DHT22;37886;53.174;6.368;2023-12-07T14:29:29;0.60;99.90
51839;DHT22;37886;53.174;6.368;2023-12-07T14:31:55;0.70;99.90
51839;DHT22;37886;53.174;6.368;2023-12-07T14:34:21;0.70;99.90
51839;DHT22;37886;53.174;6.368;2023-12-07T14:36:47;0.60;99.90
51839;DHT22;37886;53.174;6.368;2023-12-07T14:39:13;0.60;99.90
51839;DHT22;37886;53.174;6.368;2023-12-07T14:41:49;0.60;99.90
51839;DHT22;37886;53.174;6.368;2023-12-07T14:44:19;0.60;99.90
51839;DHT22;37886;53.174;6.368;2023-12-07T14:46:46;0.70;99.90
51839;DHT22;37886;53.174;6.368;2023-12-07T14:49:13;0.80;99.90
51839;DHT22;37886;53.174;6.368;2023-12-07T14:51:39;0.70;99.90
51839;DHT22;37886;53.174;6.368;2023-12-07T14:54:06;0.70;99.90
51839;DHT22;37886;53.174;6.368;2023-12-07T14:56:33;0.70;99.90
51839;DHT22;37886;53.174;6.368;2023-12-07T14:59:01;0.70;99.90
51839;DHT22;37886;53.174;6.368;2023-12-07T15:01:28;0.80;99.90
51839;DHT22;37886;53.174;6.368;2023-12-07T15:03:53;0.80;99.90
51839;DHT22;37886;53.174;6.368;2023-12-07T15:06:19;0.90;99.90
51839;DHT22;37886;53.174;6.368;2023-12-07T15:08:45;0.90;99.90
51839;DHT22;37886;53.174;6.368;2023-12-07T15:11:11;1.00;99.90
51839;DHT22;37886;53.174;6.368;2023-12-07T15:13:37;1.10;99.90
51839;DHT22;37886;53.174;6.368;2023-12-07T15:16:03;1.10;99.90
51839;DHT22;37886;53.174;6.368;2023-12-07T15:18:30;1.00;99.90
51839;DHT22;37886;53.174;6.368;2023-12-07T15:21:02;0.90;99.90
51839;DHT22;37886;53.174;6.368;2023-12-07T15:23:29;1.00;99.90
51839;DHT22;37886;53.174;6.368;2023-12-07T15:25:55;1.00;99.90
51839;DHT22;37886;53.174;6.368;2023-12-07T15:28:21;1.10;99.90
51839;DHT22;37886;53.174;6.368;2023-12-07T15:30:47;1.10;99.90
51839;DHT22;37886;53.174;6.368;2023-12-07T15:33:14;1.10;99.90
51839;DHT22;37886;53.174;6.368;2023-12-07T15:35:40;1.10;99.90
51839;DHT22;37886;53.174;6.368;2023-12-07T15:38:05;1.10;99.90
51839;DHT22;37886;53.174;6.368;2023-12-07T15:40:31;1.20;99.90
51839;DHT22;37886;53.174;6.368;2023-12-07T15:42:57;1.10;99.90
51839;DHT22;37886;53.174;6.368;2023-12-07T15:45:22;1.20;99.90
51839;DHT22;37886;53.174;6.368;2023-12-07T15:47:49;1.20;99.90